createdAt,value
2019-05-20T00:02:25.930Z,82.64
2019-05-20T00:07:15.317Z,83.88
2019-05-20T00:12:11.243Z,84.65
2019-05-20T00:17:07.306Z,85.36
2019-05-20T00:22:03.335Z,86.10
2019-05-20T00:26:59.259Z,85.03
2019-05-20T00:31:55.195Z,86.01
2019-05-20T00:36:51.116Z,86.69
2019-05-20T00:41:47.848Z,86.79
2019-05-20T00:46:43.787Z,84.86
2019-05-20T00:51:40.731Z,86.70
2019-05-20T00:56:36.754Z,87.85
2019-05-20T01:01:32.898Z,88.64
2019-05-20T01:06:28.828Z,89.14
2019-05-20T01:11:24.763Z,89.68
2019-05-20T01:16:20.725Z,89.05
2019-05-20T01:21:16.748Z,89.34
2019-05-20T01:26:12.830Z,88.57
2019-05-20T01:31:09.047Z,87.65
2019-05-20T01:36:04.977Z,87.80
2019-05-20T01:41:01.415Z,88.58
2019-05-20T01:45:57.358Z,89.42
2019-05-20T01:50:53.290Z,90.34
2019-05-20T01:55:49.219Z,89.16
2019-05-20T02:00:45.149Z,90.21
2019-05-20T02:05:41.073Z,91.08
2019-05-20T02:10:37.011Z,91.70
2019-05-20T02:15:40.913Z,90.72
2019-05-20T02:20:36.880Z,91.07
2019-05-20T02:25:32.774Z,90.48
2019-05-20T02:30:28.799Z,89.41
2019-05-20T02:35:24.729Z,90.78
2019-05-20T02:40:20.764Z,91.49
2019-05-20T02:45:16.921Z,89.46
2019-05-20T02:50:12.954Z,90.24
2019-05-20T02:55:08.997Z,91.39
2019-05-20T03:00:08.514Z,90.49
2019-05-20T03:05:07.674Z,90.10
2019-05-20T03:10:05.519Z,91.10
2019-05-20T03:15:02.357Z,92.03
2019-05-20T03:19:58.284Z,91.72
2019-05-20T03:24:54.218Z,92.22
2019-05-20T03:29:50.251Z,90.70
2019-05-20T03:34:54.012Z,91.80
2019-05-20T03:39:44.029Z,92.47
2019-05-20T03:44:39.986Z,92.83
2019-05-20T03:49:35.911Z,92.71
2019-05-20T03:54:31.848Z,92.56
2019-05-20T03:59:27.791Z,92.44
2019-05-20T04:04:25.157Z,92.51
2019-05-20T04:09:22.113Z,91.80
2019-05-20T04:14:18.115Z,91.79
2019-05-20T04:19:14.036Z,90.70
2019-05-20T04:24:10.185Z,90.03
2019-05-20T04:29:06.133Z,87.64
2019-05-20T04:34:02.165Z,87.17
2019-05-20T04:39:03.243Z,88.60
2019-05-20T04:43:59.214Z,88.28
2019-05-20T04:48:55.159Z,88.77
2019-05-20T04:53:51.080Z,88.64
2019-05-20T04:58:47.007Z,88.73
2019-05-20T05:03:42.936Z,86.86
2019-05-20T05:08:46.407Z,86.69
2019-05-20T05:13:42.430Z,86.11
2019-05-20T05:18:38.362Z,85.76
2019-05-20T05:23:34.398Z,82.27
2019-05-20T05:28:30.332Z,81.92
2019-05-20T05:33:26.267Z,80.98
2019-05-20T05:38:24.678Z,80.37
2019-05-20T05:43:26.730Z,80.26
2019-05-20T05:48:23.364Z,80.20
2019-05-20T05:53:19.293Z,80.07
2019-05-20T05:58:15.245Z,79.97
2019-05-20T06:03:11.229Z,79.07
2019-05-20T06:08:07.162Z,79.95
2019-05-20T06:13:03.337Z,80.01
2019-05-20T06:17:59.315Z,79.68
2019-05-20T06:22:55.619Z,80.02
2019-05-20T06:27:51.545Z,81.69
2019-05-20T06:32:47.475Z,82.67
2019-05-20T06:37:48.499Z,82.57
2019-05-20T06:42:44.527Z,84.76
2019-05-20T06:47:41.264Z,85.04
2019-05-20T06:52:37.208Z,84.56
2019-05-20T06:57:33.125Z,85.08
2019-05-20T07:02:29.063Z,86.14
2019-05-20T07:07:24.988Z,83.79
2019-05-20T07:12:20.932Z,82.64
2019-05-20T07:17:16.857Z,84.00
2019-05-20T07:22:12.778Z,85.61
2019-05-20T07:27:08.705Z,85.85
2019-05-20T07:32:04.641Z,85.70
2019-05-20T07:37:03.836Z,86.87
2019-05-20T07:41:58.490Z,88.05
2019-05-20T07:46:54.600Z,88.54
2019-05-20T07:51:50.810Z,88.42
2019-05-20T07:56:48.542Z,88.22
2019-05-20T08:01:44.466Z,89.57
2019-05-20T08:06:40.393Z,89.72
2019-05-20T08:11:36.327Z,88.86
2019-05-20T08:16:32.655Z,88.50
2019-05-20T08:21:28.580Z,88.24
2019-05-20T08:26:24.622Z,88.86
2019-05-20T08:31:20.547Z,89.46
2019-05-20T08:36:16.484Z,88.83
2019-05-20T08:41:12.421Z,89.40
2019-05-20T08:46:08.391Z,89.65
2019-05-20T08:51:04.314Z,88.87
2019-05-20T08:56:00.283Z,88.25
2019-05-20T09:00:56.379Z,88.64
2019-05-20T09:05:52.305Z,89.55
2019-05-20T09:10:48.240Z,89.54
2019-05-20T09:15:45.427Z,89.84
2019-05-20T09:20:41.941Z,88.62
2019-05-20T09:25:37.928Z,87.88
2019-05-20T09:30:33.866Z,87.44
2019-05-20T09:35:29.996Z,87.45
2019-05-20T09:40:57.014Z,87.25
2019-05-20T09:46:06.210Z,87.66
2019-05-20T09:50:51.802Z,88.38
2019-05-20T09:55:47.727Z,89.10
2019-05-20T10:00:44.958Z,88.55
2019-05-20T10:05:40.919Z,88.00
2019-05-20T10:10:36.830Z,88.08
2019-05-20T10:15:32.952Z,87.95
2019-05-20T10:20:28.875Z,86.00
2019-05-20T10:25:24.920Z,85.53
2019-05-20T10:30:20.952Z,84.45
2019-05-20T10:35:16.892Z,84.82
2019-05-20T10:40:19.499Z,85.17
2019-05-20T10:45:18.754Z,83.47
2019-05-20T10:50:15.009Z,82.35
2019-05-20T10:55:11.626Z,80.37
2019-05-20T11:00:08.060Z,80.65
2019-05-20T11:05:05.200Z,81.27
2019-05-20T11:10:01.345Z,81.85
2019-05-20T11:14:57.265Z,81.40
2019-05-20T11:19:53.200Z,80.48
2019-05-20T11:24:49.196Z,77.84
2019-05-20T11:29:45.126Z,77.96
2019-05-20T11:34:41.095Z,80.02
2019-05-20T11:39:37.093Z,78.38
2019-05-20T11:44:33.044Z,77.08
2019-05-20T11:49:29.510Z,76.02
2019-05-20T11:54:25.556Z,76.02
2019-05-20T11:59:21.490Z,76.36
2019-05-20T12:04:17.418Z,75.65
2019-05-20T12:09:14.629Z,77.43
2019-05-20T12:14:10.626Z,76.34
2019-05-20T12:19:06.555Z,75.33
2019-05-20T12:24:02.595Z,75.40
2019-05-20T12:28:58.523Z,76.51
2019-05-20T12:33:54.455Z,75.93
2019-05-20T12:38:53.337Z,75.57
2019-05-20T12:44:09.962Z,74.90
2019-05-20T12:48:47.654Z,75.66
2019-05-20T12:53:43.614Z,76.17
2019-05-20T12:58:40.149Z,74.73
2019-05-20T13:03:36.087Z,75.12
2019-05-20T13:08:47.018Z,74.68
2019-05-20T13:13:43.148Z,75.47
2019-05-20T13:18:53.473Z,74.25
2019-05-20T13:23:37.043Z,75.50
2019-05-20T13:28:33.021Z,75.56
2019-05-20T13:33:29.308Z,74.52
2019-05-20T13:38:26.189Z,74.58
2019-05-20T13:43:22.217Z,76.22
2019-05-20T13:48:18.199Z,74.81
2019-05-20T13:53:14.160Z,75.41
2019-05-20T13:58:10.790Z,75.50
2019-05-20T14:03:06.985Z,73.09
2019-05-20T14:08:03.130Z,75.36
2019-05-20T14:12:59.129Z,73.81
2019-05-20T14:17:55.049Z,73.65
2019-05-20T14:22:51.049Z,73.06
2019-05-20T14:27:47.056Z,73.65
2019-05-20T14:32:43.127Z,74.28
2019-05-20T14:37:39.043Z,73.39
2019-05-20T14:42:35.588Z,72.49
2019-05-20T14:47:31.531Z,73.82
2019-05-20T14:52:32.760Z,73.63
2019-05-20T14:57:33.966Z,73.53
2019-05-20T15:02:37.595Z,73.61
2019-05-20T15:07:40.553Z,74.09
2019-05-20T15:17:56.849Z,74.05
2019-05-20T15:22:53.498Z,74.50
2019-05-20T15:27:50.518Z,73.55
2019-05-20T15:32:46.547Z,74.85
2019-05-20T15:37:44.567Z,74.13
2019-05-20T15:42:41.482Z,74.01
2019-05-20T15:47:37.546Z,73.48
2019-05-20T15:52:34.134Z,73.18
2019-05-20T15:57:30.063Z,73.18
2019-05-20T16:02:26.001Z,73.50
2019-05-20T16:07:22.034Z,73.51
2019-05-20T16:12:17.969Z,73.60
2019-05-20T16:17:14.070Z,73.56
2019-05-20T16:22:10.005Z,72.83
2019-05-20T16:27:06.186Z,74.03
2019-05-20T16:32:02.378Z,75.12
2019-05-20T16:36:58.333Z,75.35
2019-05-20T16:41:55.000Z,76.51
2019-05-20T16:46:51.051Z,75.98
2019-05-20T16:51:48.939Z,76.33
2019-05-20T16:56:47.775Z,76.38
2019-05-20T17:01:46.539Z,76.63
2019-05-20T17:06:42.503Z,76.61
2019-05-20T17:11:38.516Z,76.33
2019-05-20T17:16:34.438Z,76.63
2019-05-20T17:21:30.957Z,77.31
2019-05-20T17:26:26.927Z,77.60
2019-05-20T17:31:22.964Z,79.22
2019-05-20T17:36:18.899Z,78.91
2019-05-20T17:41:14.828Z,79.63
2019-05-20T17:46:10.951Z,81.53
2019-05-20T17:51:06.883Z,82.35
2019-05-20T17:56:03.056Z,83.76
2019-05-20T18:01:13.801Z,85.40
2019-05-20T18:05:57.604Z,86.92
2019-05-20T18:10:53.636Z,87.88
2019-05-20T18:15:49.558Z,89.20
2019-05-20T18:20:45.498Z,91.33
2019-05-20T18:25:42.549Z,91.22
2019-05-20T18:30:38.479Z,89.53
2019-05-20T18:35:34.416Z,86.07
2019-05-20T18:40:30.450Z,84.05
2019-05-20T18:45:26.420Z,83.10
2019-05-20T18:50:23.494Z,82.77
2019-05-20T18:55:19.416Z,81.95
2019-05-20T19:00:17.384Z,82.08
2019-05-20T19:05:13.612Z,82.55
2019-05-20T19:10:09.860Z,81.77
2019-05-20T19:15:06.123Z,82.69
2019-05-20T19:20:03.443Z,82.65
2019-05-20T19:24:59.414Z,83.25
2019-05-20T19:29:55.505Z,82.99
2019-05-20T19:34:51.435Z,82.96
2019-05-20T19:39:47.367Z,83.25
2019-05-20T19:44:43.327Z,83.67
2019-05-20T19:49:42.322Z,83.28
2019-05-20T19:54:37.193Z,83.31
2019-05-20T19:59:33.119Z,83.38
2019-05-20T20:04:29.050Z,83.67
2019-05-20T20:09:25.592Z,82.95
2019-05-20T20:14:21.488Z,83.16
2019-05-20T20:19:17.416Z,83.26
2019-05-20T20:24:13.344Z,83.81
2019-05-20T20:29:11.135Z,83.28
2019-05-20T20:34:07.104Z,83.66
2019-05-20T20:39:06.988Z,83.96
2019-05-20T20:44:03.116Z,83.93
2019-05-20T20:48:59.141Z,84.06
2019-05-20T20:53:55.066Z,84.25
2019-05-20T20:58:51.051Z,84.31
2019-05-20T21:03:46.957Z,84.69
2019-05-20T21:08:48.798Z,84.55
2019-05-20T21:13:44.824Z,84.62
2019-05-20T21:18:41.180Z,84.56
2019-05-20T21:23:38.060Z,84.65
2019-05-20T21:28:35.951Z,84.55
2019-05-20T21:33:31.915Z,85.07
2019-05-20T21:38:28.967Z,85.00
2019-05-20T21:43:25.035Z,84.77
2019-05-20T21:48:20.984Z,85.30
2019-05-20T21:53:16.895Z,85.34
2019-05-20T21:58:12.823Z,85.56
2019-05-20T22:03:23.253Z,86.02
2019-05-20T22:08:06.690Z,86.22
2019-05-20T22:13:02.715Z,86.77
2019-05-20T22:17:58.642Z,87.16
2019-05-20T22:28:14.714Z,87.94
2019-05-20T22:33:10.633Z,88.10
2019-05-20T22:38:06.591Z,88.52
2019-05-20T22:43:02.609Z,88.89
2019-05-20T22:47:58.560Z,89.30
2019-05-20T22:52:54.487Z,90.35
2019-05-20T22:57:50.410Z,91.49
2019-05-20T23:02:46.333Z,91.93
2019-05-20T23:07:42.256Z,92.28
2019-05-20T23:12:38.275Z,93.10
2019-05-20T23:17:34.201Z,94.15
2019-05-20T23:22:30.122Z,94.39
2019-05-20T23:27:26.043Z,94.47
2019-05-20T23:32:21.962Z,94.91
2019-05-20T23:37:17.884Z,95.25
2019-05-20T23:42:14.658Z,95.33
2019-05-20T23:47:10.657Z,95.64
2019-05-20T23:52:06.640Z,95.97
2019-05-20T23:57:02.647Z,96.27
